createdAt,value
2019-02-27T00:01:16.774Z,10.93
2019-02-27T00:03:44.706Z,14.73
2019-02-27T00:06:15.937Z,16.67
2019-02-27T00:08:45.197Z,11.53
2019-02-27T00:11:14.456Z,13.37
2019-02-27T00:13:43.750Z,13.47
2019-02-27T00:16:12.914Z,12.43
2019-02-27T00:18:42.172Z,12.17
2019-02-27T00:21:11.453Z,13.03
2019-02-27T00:23:40.689Z,11.83
2019-02-27T00:26:09.972Z,13.90
2019-02-27T00:28:39.232Z,14.93
2019-02-27T00:31:11.169Z,13.73
2019-02-27T00:33:39.453Z,11.80
2019-02-27T00:36:12.012Z,14.40
2019-02-27T00:38:39.786Z,12.97
2019-02-27T00:41:12.066Z,13.20
2019-02-27T00:43:39.995Z,15.13
2019-02-27T00:46:10.732Z,12.83
2019-02-27T00:48:40.203Z,13.70
2019-02-27T00:51:09.656Z,12.33
2019-02-27T00:53:40.367Z,11.50
2019-02-27T00:56:12.000Z,11.80
2019-02-27T00:58:40.565Z,13.17
2019-02-27T01:01:10.057Z,12.07
2019-02-27T01:03:40.725Z,17.83
2019-02-27T01:06:12.292Z,11.27
2019-02-27T01:08:40.901Z,12.77
2019-02-27T01:11:10.101Z,10.93
2019-02-27T01:13:39.521Z,11.03
2019-02-27T01:16:09.050Z,10.93
2019-02-27T01:18:38.307Z,12.53
2019-02-27T01:21:07.783Z,12.53
2019-02-27T01:23:37.427Z,13.23
2019-02-27T01:26:07.003Z,16.07
2019-02-27T01:28:36.342Z,15.00
2019-02-27T01:31:05.613Z,14.00
2019-02-27T01:33:38.232Z,16.87
2019-02-27T01:36:06.085Z,14.77
2019-02-27T01:38:37.846Z,15.20
2019-02-27T01:41:06.251Z,16.07
2019-02-27T01:43:39.554Z,13.70
2019-02-27T01:46:06.419Z,17.40
2019-02-27T01:48:35.645Z,15.13
2019-02-27T01:51:04.926Z,14.87
2019-02-27T01:53:34.166Z,19.00
2019-02-27T01:56:03.619Z,11.67
2019-02-27T01:58:32.797Z,12.40
2019-02-27T02:01:02.238Z,12.93
2019-02-27T02:03:31.788Z,15.53
2019-02-27T02:06:01.155Z,15.13
2019-02-27T02:08:30.486Z,12.17
2019-02-27T02:11:01.391Z,15.27
2019-02-27T02:14:07.798Z,14.90
2019-02-27T02:17:27.538Z,13.63
2019-02-27T02:20:21.676Z,13.27
2019-02-27T02:23:21.909Z,14.10
2019-02-27T02:26:24.183Z,12.53
2019-02-27T02:29:40.446Z,10.10
2019-02-27T02:32:25.295Z,13.40
2019-02-27T02:35:50.739Z,12.37
2019-02-27T02:38:37.979Z,12.93
2019-02-27T02:41:54.467Z,10.90
2019-02-27T02:45:03.130Z,11.20
2019-02-27T02:47:57.652Z,12.20
2019-02-27T02:51:08.275Z,15.70
2019-02-27T02:54:04.868Z,14.27
2019-02-27T02:57:02.755Z,11.17
2019-02-27T03:00:15.777Z,11.43
2019-02-27T03:03:01.947Z,12.60
2019-02-27T03:05:59.740Z,12.43
2019-02-27T03:08:42.973Z,10.23
2019-02-27T03:12:10.025Z,12.37
2019-02-27T03:15:11.148Z,10.53
2019-02-27T03:18:30.775Z,9.10
2019-02-27T03:21:19.696Z,11.83
2019-02-27T03:24:28.232Z,11.67
2019-02-27T03:27:46.919Z,8.77
2019-02-27T03:31:01.643Z,11.17
2019-02-27T03:34:05.166Z,12.20
2019-02-27T03:36:53.895Z,9.43
2019-02-27T03:39:41.444Z,10.37
2019-02-27T03:43:10.043Z,9.23
2019-02-27T03:46:25.655Z,9.37
2019-02-27T03:49:31.576Z,10.70
2019-02-27T03:52:49.614Z,8.83
2019-02-27T03:56:09.871Z,8.70
2019-02-27T03:59:25.683Z,7.73
2019-02-27T04:02:42.020Z,10.47
2019-02-27T04:05:49.457Z,10.67
2019-02-27T04:08:45.924Z,8.73
2019-02-27T04:11:15.194Z,9.63
2019-02-27T04:13:44.362Z,12.67
2019-02-27T04:16:13.554Z,8.57
2019-02-27T04:18:43.402Z,8.67
2019-02-27T04:21:12.887Z,9.50
2019-02-27T04:23:47.990Z,10.27
2019-02-27T04:26:13.214Z,12.03
2019-02-27T04:28:42.389Z,10.60
2019-02-27T04:31:11.997Z,10.53
2019-02-27T04:33:41.221Z,10.73
2019-02-27T04:36:12.863Z,13.13
2019-02-27T04:38:41.365Z,14.67
2019-02-27T04:41:10.577Z,10.70
2019-02-27T04:43:40.152Z,12.93
2019-02-27T04:46:09.439Z,10.43
2019-02-27T04:48:38.600Z,11.50
2019-02-27T04:51:07.857Z,12.43
2019-02-27T04:53:37.040Z,12.00
2019-02-27T04:56:06.362Z,11.37
2019-02-27T04:58:35.642Z,10.83
2019-02-27T05:01:05.147Z,11.17
2019-02-27T05:03:34.394Z,13.53
2019-02-27T05:06:03.658Z,10.67
2019-02-27T05:08:32.991Z,9.13
2019-02-27T05:11:02.321Z,8.90
2019-02-27T05:13:31.778Z,9.47
2019-02-27T05:16:01.011Z,10.23
2019-02-27T05:18:30.209Z,11.07
2019-02-27T05:20:59.481Z,10.20
2019-02-27T05:23:30.863Z,8.77
2019-02-27T05:25:59.833Z,10.40
2019-02-27T05:28:29.152Z,13.03
2019-02-27T05:30:58.402Z,14.07
2019-02-27T05:33:27.761Z,12.63
2019-02-27T05:35:57.760Z,12.67
2019-02-27T05:38:27.191Z,11.87
2019-02-27T05:40:59.821Z,14.00
2019-02-27T05:43:27.351Z,16.03
2019-02-27T05:45:56.547Z,17.87
2019-02-27T05:48:26.098Z,13.23
2019-02-27T05:50:55.356Z,11.07
2019-02-27T05:53:24.584Z,11.33
2019-02-27T05:55:53.746Z,13.43
2019-02-27T05:58:23.599Z,18.03
2019-02-27T06:00:52.910Z,14.37
2019-02-27T06:03:22.128Z,11.53
2019-02-27T06:05:51.488Z,12.93
2019-02-27T06:08:20.668Z,10.77
2019-02-27T06:10:54.995Z,10.27
2019-02-27T06:13:20.994Z,11.17
2019-02-27T06:15:50.235Z,10.70
2019-02-27T06:18:22.440Z,11.47
2019-02-27T06:20:50.387Z,9.60
2019-02-27T06:23:19.590Z,10.90
2019-02-27T06:25:48.916Z,10.87
2019-02-27T06:28:19.346Z,10.27
2019-02-27T06:30:48.661Z,10.73
2019-02-27T06:33:17.846Z,10.67
2019-02-27T06:35:49.390Z,12.40
2019-02-27T06:38:18.455Z,10.70
2019-02-27T06:40:47.652Z,11.63
2019-02-27T06:43:17.495Z,11.53
2019-02-27T06:45:46.707Z,9.40
2019-02-27T06:48:16.037Z,9.77
2019-02-27T06:50:45.247Z,14.03
2019-02-27T06:53:16.479Z,13.67
2019-02-27T06:55:45.545Z,12.40
2019-02-27T06:58:15.500Z,11.23
2019-02-27T07:00:44.779Z,16.43
2019-02-27T07:03:14.341Z,17.87
2019-02-27T07:05:45.518Z,11.00
2019-02-27T07:08:14.951Z,16.90
2019-02-27T07:10:44.642Z,10.73
2019-02-27T07:13:13.899Z,16.47
2019-02-27T07:15:47.763Z,13.77
2019-02-27T07:18:14.252Z,13.37
2019-02-27T07:20:43.900Z,10.60
2019-02-27T07:23:13.134Z,12.27
2019-02-27T07:25:43.309Z,10.63
2019-02-27T07:28:13.645Z,13.80
2019-02-27T07:30:44.930Z,13.77
2019-02-27T07:33:14.682Z,13.53
2019-02-27T07:35:43.918Z,11.73
2019-02-27T07:38:13.485Z,10.07
2019-02-27T07:40:43.531Z,13.63
2019-02-27T07:43:12.885Z,12.90
2019-02-27T07:45:42.714Z,11.47
2019-02-27T07:48:13.289Z,14.67
2019-02-27T07:50:42.564Z,13.63
2019-02-27T07:53:12.209Z,14.03
2019-02-27T07:55:41.581Z,12.97
2019-02-27T07:58:10.873Z,13.83
2019-02-27T08:00:40.466Z,15.57
2019-02-27T08:03:12.935Z,11.03
2019-02-27T08:05:40.685Z,13.00
2019-02-27T08:08:09.872Z,11.60
2019-02-27T08:10:39.158Z,13.27
2019-02-27T08:13:08.331Z,11.60
2019-02-27T08:15:37.525Z,12.03
2019-02-27T08:18:06.952Z,13.73
2019-02-27T08:20:36.663Z,11.97
2019-02-27T08:23:06.991Z,13.60
2019-02-27T08:25:36.335Z,13.87
2019-02-27T08:28:05.532Z,14.23
2019-02-27T08:30:34.754Z,13.83
2019-02-27T08:33:08.137Z,13.20
2019-02-27T08:35:35.913Z,12.67
2019-02-27T08:38:05.572Z,9.80
2019-02-27T08:40:35.342Z,11.47
2019-02-27T08:43:04.714Z,15.80
2019-02-27T08:45:34.070Z,13.27
2019-02-27T08:48:03.250Z,12.00
2019-02-27T08:50:32.815Z,13.27
2019-02-27T08:53:02.148Z,12.27
2019-02-27T08:55:31.712Z,16.03
2019-02-27T08:58:01.246Z,11.30
2019-02-27T09:00:31.602Z,12.97
2019-02-27T09:03:02.823Z,13.30
2019-02-27T09:05:32.576Z,16.10
2019-02-27T09:08:02.204Z,13.17
2019-02-27T09:10:31.441Z,16.57
2019-02-27T09:13:05.278Z,13.67
2019-02-27T09:15:31.800Z,13.63
2019-02-27T09:18:01.908Z,13.90
2019-02-27T09:20:31.670Z,13.53
2019-02-27T09:23:01.760Z,18.40
2019-02-27T09:25:31.023Z,12.10
2019-02-27T09:28:00.591Z,16.57
2019-02-27T09:30:30.186Z,14.90
2019-02-27T09:33:00.026Z,13.37
2019-02-27T09:35:32.263Z,15.73
2019-02-27T09:38:00.414Z,16.33
2019-02-27T09:40:30.036Z,18.23
2019-02-27T09:42:59.372Z,16.47
2019-02-27T09:45:30.127Z,15.80
2019-02-27T09:48:00.587Z,20.43
2019-02-27T09:50:37.590Z,17.57
2019-02-27T09:53:07.315Z,20.17
2019-02-27T09:55:36.728Z,19.20
2019-02-27T09:58:11.107Z,17.80
2019-02-27T10:00:42.978Z,19.07
2019-02-27T10:03:12.595Z,15.80
2019-02-27T10:05:42.254Z,16.80
2019-02-27T10:08:12.270Z,16.77
2019-02-27T10:10:44.929Z,17.63
2019-02-27T10:13:12.927Z,21.53
2019-02-27T10:15:42.299Z,14.10
2019-02-27T10:18:11.707Z,14.50
2019-02-27T10:20:41.340Z,15.83
2019-02-27T10:23:10.587Z,15.63
2019-02-27T10:25:43.226Z,15.60
2019-02-27T10:28:10.901Z,14.20
2019-02-27T10:30:40.932Z,20.33
2019-02-27T10:33:11.192Z,22.00
2019-02-27T10:35:41.214Z,19.70
2019-02-27T10:38:10.469Z,16.87
2019-02-27T10:40:39.779Z,15.03
2019-02-27T10:43:09.119Z,17.40
2019-02-27T10:45:38.686Z,18.90
2019-02-27T10:48:07.973Z,17.67
2019-02-27T10:50:37.570Z,18.97
2019-02-27T10:53:06.918Z,18.97
2019-02-27T10:55:36.186Z,21.17
2019-02-27T10:58:07.535Z,17.30
2019-02-27T11:00:36.872Z,16.77
2019-02-27T11:03:06.541Z,20.70
2019-02-27T11:05:36.182Z,19.37
2019-02-27T11:08:05.548Z,15.87
2019-02-27T11:10:35.126Z,15.03
2019-02-27T11:13:06.724Z,17.17
2019-02-27T11:15:35.692Z,17.43
2019-02-27T11:18:05.966Z,19.47
2019-02-27T11:20:35.526Z,14.80
2019-02-27T11:23:07.011Z,17.10
2019-02-27T11:25:36.040Z,18.53
2019-02-27T11:28:05.496Z,17.13
2019-02-27T11:30:36.830Z,20.07
2019-02-27T11:33:06.457Z,17.60
2019-02-27T11:35:36.028Z,20.07
2019-02-27T11:38:05.787Z,16.17
2019-02-27T11:40:35.206Z,17.57
2019-02-27T11:43:06.943Z,16.87
2019-02-27T11:45:35.543Z,16.03
2019-02-27T11:48:05.059Z,18.07
2019-02-27T11:50:34.439Z,24.67
2019-02-27T11:53:04.158Z,30.33
2019-02-27T11:55:33.958Z,22.30
2019-02-27T11:58:05.424Z,21.23
2019-02-27T12:00:34.758Z,22.15
2019-02-27T12:03:04.300Z,19.75
2019-02-27T12:05:34.438Z,21.82
2019-02-27T12:08:03.810Z,21.40
2019-02-27T12:10:33.123Z,25.17
2019-02-27T12:13:02.452Z,19.25
2019-02-27T12:15:31.770Z,21.62
2019-02-27T12:18:01.786Z,20.75
2019-02-27T12:20:31.327Z,21.20
2019-02-27T12:23:00.960Z,19.30
2019-02-27T12:25:31.788Z,23.80
2019-02-27T12:28:04.746Z,19.92
2019-02-27T12:30:37.197Z,23.98
2019-02-27T12:33:05.455Z,19.35
2019-02-27T12:35:34.940Z,21.05
2019-02-27T12:38:08.287Z,23.20
2019-02-27T12:40:36.577Z,19.62
2019-02-27T12:43:05.917Z,23.83
2019-02-27T12:45:35.261Z,21.77
2019-02-27T12:48:04.667Z,25.12
2019-02-27T12:50:34.579Z,26.33
2019-02-27T12:53:03.875Z,19.15
2019-02-27T12:55:35.659Z,16.87
2019-02-27T12:58:04.183Z,16.90
2019-02-27T13:00:33.908Z,14.68
2019-02-27T13:03:03.209Z,13.72
2019-02-27T13:05:32.712Z,15.40
2019-02-27T13:08:02.340Z,14.58
2019-02-27T13:10:34.169Z,15.18
2019-02-27T13:13:02.924Z,16.77
2019-02-27T13:15:32.225Z,14.90
2019-02-27T13:18:01.731Z,16.42
2019-02-27T13:20:30.980Z,14.60
2019-02-27T13:23:04.096Z,16.97
2019-02-27T13:25:31.227Z,15.83
2019-02-27T13:28:00.607Z,17.40
2019-02-27T13:30:30.144Z,16.35
2019-02-27T13:33:01.364Z,18.75
2019-02-27T13:35:31.317Z,18.65
2019-02-27T13:38:00.693Z,14.25
2019-02-27T13:40:35.261Z,14.85
2019-02-27T13:43:01.387Z,11.48
2019-02-27T13:45:30.676Z,14.90
2019-02-27T13:48:04.783Z,12.03
2019-02-27T13:50:31.083Z,13.50
2019-02-27T13:53:00.458Z,13.98
2019-02-27T13:55:29.922Z,15.78
2019-02-27T13:58:03.410Z,14.43
2019-02-27T14:00:30.357Z,11.35
2019-02-27T14:03:00.324Z,16.67
2019-02-27T14:05:29.733Z,13.53
2019-02-27T14:08:00.668Z,16.17
2019-02-27T14:10:30.035Z,15.48
2019-02-27T14:12:59.267Z,21.50
2019-02-27T14:15:28.614Z,15.68
2019-02-27T14:17:59.145Z,19.02
2019-02-27T14:20:29.205Z,18.05
2019-02-27T14:22:58.620Z,19.00
2019-02-27T14:25:31.043Z,21.37
2019-02-27T14:27:58.992Z,22.20
2019-02-27T14:30:35.704Z,20.85
2019-02-27T14:33:04.711Z,17.40
2019-02-27T14:35:36.191Z,13.58
2019-02-27T14:38:12.997Z,15.53
2019-02-27T14:40:43.181Z,13.80
2019-02-27T14:43:12.765Z,13.83
2019-02-27T14:45:42.105Z,12.35
2019-02-27T14:48:11.423Z,16.70
2019-02-27T14:50:40.833Z,14.03
2019-02-27T14:53:10.142Z,14.00
2019-02-27T14:55:39.433Z,13.98
2019-02-27T14:58:08.758Z,12.40
2019-02-27T15:00:40.942Z,14.70
2019-02-27T15:03:09.154Z,11.22
2019-02-27T15:05:42.789Z,15.13
2019-02-27T15:08:09.438Z,9.18
2019-02-27T15:10:41.135Z,11.88
2019-02-27T15:13:09.956Z,12.47
2019-02-27T15:15:43.227Z,13.08
2019-02-27T15:18:10.174Z,13.83
2019-02-27T15:20:41.002Z,11.28
2019-02-27T15:23:10.452Z,11.85
2019-02-27T15:25:43.191Z,13.88
2019-02-27T15:28:10.738Z,15.10
2019-02-27T15:30:39.933Z,13.72
2019-02-27T15:33:09.148Z,12.88
2019-02-27T15:35:38.334Z,11.63
2019-02-27T15:38:11.522Z,20.70
2019-02-27T15:40:38.842Z,14.80
2019-02-27T15:43:11.425Z,12.20
2019-02-27T15:45:47.546Z,13.25
2019-02-27T15:48:11.070Z,11.78
2019-02-27T15:50:40.437Z,13.70
2019-02-27T15:53:14.524Z,12.25
2019-02-27T15:55:40.667Z,13.32
2019-02-27T15:58:09.885Z,10.40
2019-02-27T16:00:39.102Z,12.93
2019-02-27T16:03:11.816Z,10.60
2019-02-27T16:05:40.199Z,12.50
2019-02-27T16:08:09.704Z,13.13
2019-02-27T16:10:42.647Z,10.38
2019-02-27T16:13:10.046Z,12.37
2019-02-27T16:15:39.243Z,14.55
2019-02-27T16:18:08.504Z,12.47
2019-02-27T16:20:37.753Z,11.00
2019-02-27T16:23:07.017Z,10.98
2019-02-27T16:25:36.299Z,17.15
2019-02-27T16:28:05.626Z,14.75
2019-02-27T16:30:34.870Z,14.25
2019-02-27T16:33:04.122Z,13.78
2019-02-27T16:35:33.377Z,12.65
2019-02-27T16:38:02.967Z,13.55
2019-02-27T16:40:32.255Z,10.60
2019-02-27T16:43:01.540Z,13.43
2019-02-27T16:45:33.850Z,11.90
2019-02-27T16:48:02.509Z,15.13
2019-02-27T16:50:32.299Z,11.80
2019-02-27T16:53:01.607Z,11.97
2019-02-27T16:55:35.663Z,13.88
2019-02-27T16:58:02.280Z,15.60
2019-02-27T17:00:31.768Z,12.18
2019-02-27T17:03:01.597Z,19.12
2019-02-27T17:05:32.202Z,17.12
2019-02-27T17:08:02.685Z,17.10
2019-02-27T17:10:32.274Z,13.43
2019-02-27T17:13:01.484Z,17.05
2019-02-27T17:15:34.789Z,19.40
2019-02-27T17:18:01.679Z,18.00
2019-02-27T17:20:31.407Z,16.25
2019-02-27T17:23:00.886Z,21.15
2019-02-27T17:25:30.361Z,18.37
2019-02-27T17:27:59.647Z,14.75
2019-02-27T17:30:36.614Z,15.45
2019-02-27T17:33:05.304Z,15.18
2019-02-27T17:35:34.906Z,17.15
2019-02-27T17:38:04.595Z,21.27
2019-02-27T17:40:37.616Z,14.40
2019-02-27T17:43:06.598Z,15.03
2019-02-27T17:45:36.446Z,14.50
2019-02-27T17:48:06.013Z,14.97
2019-02-27T17:50:35.577Z,15.43
2019-02-27T17:53:05.061Z,17.70
2019-02-27T17:55:34.514Z,20.03
2019-02-27T17:58:03.911Z,17.10
2019-02-27T18:00:36.726Z,15.47
2019-02-27T18:03:06.060Z,16.30
2019-02-27T18:05:35.521Z,18.63
2019-02-27T18:08:05.212Z,18.27
2019-02-27T18:10:37.435Z,16.43
2019-02-27T18:13:05.605Z,18.67
2019-02-27T18:15:35.622Z,18.03
2019-02-27T18:18:07.174Z,27.27
2019-02-27T18:20:37.037Z,24.30
2019-02-27T18:23:12.823Z,36.63
2019-02-27T18:25:43.164Z,37.60
2019-02-27T18:28:12.795Z,23.27
2019-02-27T18:30:42.733Z,31.20
2019-02-27T18:33:14.295Z,31.93
2019-02-27T18:35:44.003Z,37.57
2019-02-27T18:38:13.760Z,31.80
2019-02-27T18:40:43.652Z,27.67
2019-02-27T18:43:13.654Z,25.83
2019-02-27T18:45:43.112Z,20.53
2019-02-27T18:48:12.510Z,29.87
2019-02-27T18:50:42.131Z,27.20
2019-02-27T18:53:13.334Z,24.37
2019-02-27T18:55:44.869Z,29.30
2019-02-27T18:58:14.229Z,26.97
2019-02-27T19:00:43.543Z,29.73
2019-02-27T19:03:13.642Z,32.60
2019-02-27T19:05:43.068Z,29.07
2019-02-27T19:08:12.646Z,23.73
2019-02-27T19:10:42.717Z,24.03
2019-02-27T19:13:12.232Z,23.40
2019-02-27T19:15:45.308Z,22.17
2019-02-27T19:18:12.815Z,26.17
2019-02-27T19:20:42.557Z,17.93
2019-02-27T19:23:17.190Z,21.70
2019-02-27T19:25:44.622Z,22.77
2019-02-27T19:28:13.966Z,23.97
2019-02-27T19:30:43.422Z,22.50
2019-02-27T19:33:12.639Z,22.33
2019-02-27T19:35:42.121Z,24.27
2019-02-27T19:38:12.939Z,21.67
2019-02-27T19:40:43.899Z,25.43
2019-02-27T19:43:13.165Z,26.67
2019-02-27T19:45:42.480Z,24.63
2019-02-27T19:48:12.326Z,25.47
2019-02-27T19:50:45.245Z,23.20
2019-02-27T19:53:13.324Z,26.63
2019-02-27T19:55:42.698Z,32.17
2019-02-27T19:58:17.143Z,27.40
2019-02-27T20:00:48.339Z,28.17
2019-02-27T20:03:15.076Z,22.90
2019-02-27T20:05:44.496Z,20.57
2019-02-27T20:08:14.166Z,24.13
2019-02-27T20:10:44.274Z,27.93
2019-02-27T20:13:13.984Z,28.23
2019-02-27T20:15:45.600Z,29.13
2019-02-27T20:18:15.338Z,26.77
2019-02-27T20:20:44.831Z,25.80
2019-02-27T20:23:14.451Z,25.80
2019-02-27T20:25:44.472Z,27.07
2019-02-27T20:28:14.285Z,25.77
2019-02-27T20:30:44.498Z,19.30
2019-02-27T20:33:14.062Z,24.93
2019-02-27T20:35:43.426Z,21.73
2019-02-27T20:38:16.171Z,24.43
2019-02-27T20:40:43.977Z,23.00
2019-02-27T20:43:13.376Z,22.40
2019-02-27T20:45:43.637Z,20.80
2019-02-27T20:48:13.135Z,22.33
2019-02-27T20:50:43.406Z,29.17
2019-02-27T20:53:13.317Z,22.67
2019-02-27T20:55:42.709Z,25.30
2019-02-27T20:58:16.305Z,25.00
2019-02-27T21:00:43.015Z,25.30
2019-02-27T21:03:12.303Z,21.57
2019-02-27T21:05:41.960Z,19.00
2019-02-27T21:08:11.611Z,19.73
2019-02-27T21:10:40.952Z,21.23
2019-02-27T21:13:15.693Z,19.27
2019-02-27T21:15:41.444Z,19.63
2019-02-27T21:18:10.741Z,18.87
2019-02-27T21:20:42.130Z,16.83
2019-02-27T21:23:11.297Z,15.67
2019-02-27T21:25:40.795Z,16.17
2019-02-27T21:28:10.028Z,19.10
2019-02-27T21:30:39.338Z,15.77
2019-02-27T21:33:11.236Z,18.57
2019-02-27T21:35:39.919Z,19.83
2019-02-27T21:38:09.683Z,15.43
2019-02-27T21:40:38.994Z,17.47
2019-02-27T21:43:08.273Z,17.43
2019-02-27T21:45:38.370Z,18.63
2019-02-27T21:48:08.099Z,19.07
2019-02-27T21:50:39.833Z,17.30
2019-02-27T21:53:08.957Z,16.90
2019-02-27T21:55:38.448Z,19.53
2019-02-27T21:58:19.755Z,16.27
2019-02-27T22:00:39.546Z,17.23
2019-02-27T22:03:08.987Z,19.43
2019-02-27T22:05:42.698Z,14.03
2019-02-27T22:08:09.426Z,15.47
2019-02-27T22:10:39.475Z,15.53
2019-02-27T22:13:10.532Z,17.97
2019-02-27T22:15:39.908Z,19.00
2019-02-27T22:18:11.776Z,18.57
2019-02-27T22:20:40.673Z,16.73
2019-02-27T22:23:12.646Z,16.97
2019-02-27T22:25:41.838Z,16.13
2019-02-27T22:28:13.381Z,16.50
2019-02-27T22:30:42.941Z,20.23
2019-02-27T22:33:12.928Z,17.10
2019-02-27T22:35:42.596Z,15.70
2019-02-27T22:38:12.200Z,18.43
2019-02-27T22:40:42.136Z,14.07
2019-02-27T22:43:11.670Z,17.20
2019-02-27T22:45:43.973Z,14.73
2019-02-27T22:48:12.290Z,13.63
2019-02-27T22:50:41.912Z,18.40
2019-02-27T22:53:11.559Z,15.77
2019-02-27T22:55:42.211Z,17.17
2019-02-27T22:58:12.153Z,15.83
2019-02-27T23:01:14.997Z,19.80
2019-02-27T23:03:51.209Z,15.33
2019-02-27T23:06:20.539Z,17.17
2019-02-27T23:08:50.217Z,15.93
2019-02-27T23:11:20.046Z,14.57
2019-02-27T23:13:49.770Z,13.60
2019-02-27T23:16:20.394Z,16.17
2019-02-27T23:18:49.832Z,14.50
2019-02-27T23:21:19.224Z,14.73
2019-02-27T23:23:48.645Z,16.20
2019-02-27T23:26:20.167Z,15.13
2019-02-27T23:28:50.671Z,15.17
2019-02-27T23:31:23.282Z,17.47
2019-02-27T23:33:51.500Z,14.30
2019-02-27T23:36:22.132Z,18.33
2019-02-27T23:38:52.009Z,16.07
2019-02-27T23:41:23.236Z,16.87
2019-02-27T23:43:52.403Z,18.40
2019-02-27T23:46:22.026Z,19.83
2019-02-27T23:48:51.367Z,18.40
2019-02-27T23:51:20.747Z,16.60
2019-02-27T23:53:50.197Z,15.93
2019-02-27T23:56:20.614Z,13.97
2019-02-27T23:58:50.133Z,15.90
